createdAt,value
2018-12-24T00:01:27.837Z,73.30
2018-12-24T00:03:46.217Z,73.25
2018-12-24T00:06:06.103Z,73.25
2018-12-24T00:08:25.769Z,73.23
2018-12-24T00:10:45.119Z,73.23
2018-12-24T00:13:04.512Z,73.22
2018-12-24T00:15:12.758Z,73.19
2018-12-24T00:17:33.123Z,73.20
2018-12-24T00:19:53.204Z,73.18
2018-12-24T00:22:12.995Z,73.16
2018-12-24T00:24:32.475Z,73.16
2018-12-24T00:26:51.063Z,73.15
2018-12-24T00:29:11.304Z,73.15
2018-12-24T00:31:19.675Z,73.12
2018-12-24T00:33:38.101Z,73.12
2018-12-24T00:35:58.450Z,73.08
2018-12-24T00:38:17.999Z,73.10
2018-12-24T00:41:12.499Z,72.98
2018-12-24T00:43:31.801Z,73.01
2018-12-24T00:45:49.743Z,73.02
2018-12-24T00:48:09.689Z,73.00
2018-12-24T00:50:27.558Z,72.98
2018-12-24T00:52:49.314Z,72.97
2018-12-24T00:55:08.117Z,72.95
2018-12-24T00:57:27.747Z,72.94
2018-12-24T00:59:47.058Z,72.92
2018-12-24T01:02:06.570Z,72.88
2018-12-24T01:04:25.718Z,72.86
2018-12-24T01:06:45.039Z,72.85
2018-12-24T01:09:05.893Z,72.82
2018-12-24T01:11:26.337Z,72.79
2018-12-24T01:13:46.201Z,72.80
2018-12-24T01:16:05.448Z,72.78
2018-12-24T01:18:25.041Z,72.76
2018-12-24T01:20:44.443Z,72.78
2018-12-24T01:23:03.937Z,72.75
2018-12-24T01:25:27.129Z,72.75
2018-12-24T01:27:46.781Z,72.75
2018-12-24T01:30:06.186Z,72.75
2018-12-24T01:32:25.868Z,72.73
2018-12-24T01:34:44.932Z,72.72
2018-12-24T01:37:04.155Z,72.73
2018-12-24T01:39:23.525Z,72.72
2018-12-24T01:41:43.275Z,72.71
2018-12-24T01:44:03.106Z,72.82
2018-12-24T01:46:21.101Z,72.89
2018-12-24T01:48:41.465Z,73.13
2018-12-24T01:51:00.906Z,73.73
2018-12-24T01:53:27.497Z,74.24
2018-12-24T01:55:46.838Z,74.59
2018-12-24T01:58:07.331Z,74.71
2018-12-24T02:00:27.008Z,75.00
2018-12-24T02:02:46.378Z,75.06
2018-12-24T02:05:05.852Z,75.18
2018-12-24T02:07:24.898Z,75.19
2018-12-24T02:09:44.261Z,75.25
2018-12-24T02:12:04.102Z,75.31
2018-12-24T02:14:23.793Z,75.42
2018-12-24T02:16:43.351Z,75.43
2018-12-24T02:19:02.622Z,75.48
2018-12-24T02:21:22.448Z,75.50
2018-12-24T02:23:42.025Z,75.39
2018-12-24T02:26:01.747Z,75.38
2018-12-24T02:28:21.567Z,75.16
2018-12-24T02:30:41.196Z,75.06
2018-12-24T02:33:00.662Z,75.35
2018-12-24T02:35:20.024Z,75.47
2018-12-24T02:37:39.536Z,75.46
2018-12-24T02:39:58.982Z,75.45
2018-12-24T02:42:18.642Z,75.67
2018-12-24T02:44:37.788Z,75.69
2018-12-24T02:46:57.245Z,75.75
2018-12-24T02:49:16.935Z,75.78
2018-12-24T02:51:36.274Z,75.78
2018-12-24T02:53:55.781Z,75.88
2018-12-24T02:56:15.233Z,75.88
2018-12-24T02:58:34.277Z,75.81
2018-12-24T03:00:53.793Z,75.87
2018-12-24T03:03:13.424Z,75.98
2018-12-24T03:05:32.582Z,75.98
2018-12-24T03:07:52.341Z,75.89
2018-12-24T03:10:12.101Z,75.95
2018-12-24T03:12:38.909Z,76.08
2018-12-24T03:17:17.874Z,76.17
2018-12-24T03:19:37.587Z,76.17
2018-12-24T03:21:56.949Z,76.24
2018-12-24T03:24:16.321Z,76.38
2018-12-24T03:26:35.610Z,76.19
2018-12-24T03:28:55.394Z,76.14
2018-12-24T03:31:14.645Z,76.03
2018-12-24T03:33:33.906Z,76.17
2018-12-24T03:35:53.119Z,76.28
2018-12-24T03:38:12.314Z,76.39
2018-12-24T03:40:30.476Z,76.30
2018-12-24T03:42:49.919Z,76.31
2018-12-24T03:45:10.577Z,76.29
2018-12-24T03:47:30.062Z,76.41
2018-12-24T03:49:49.558Z,76.40
2018-12-24T03:52:09.050Z,76.51
2018-12-24T03:54:28.772Z,76.57
2018-12-24T03:56:47.750Z,76.55
2018-12-24T03:59:07.109Z,76.61
2018-12-24T04:01:25.036Z,76.69
2018-12-24T04:03:44.862Z,76.64
2018-12-24T04:06:04.317Z,76.73
2018-12-24T04:08:23.676Z,76.82
2018-12-24T04:10:43.043Z,76.75
2018-12-24T04:13:02.640Z,76.67
2018-12-24T04:15:21.999Z,76.73
2018-12-24T04:17:41.145Z,76.94
2018-12-24T04:20:00.412Z,76.91
2018-12-24T04:22:19.508Z,76.91
2018-12-24T04:24:38.732Z,76.83
2018-12-24T04:26:58.850Z,76.89
2018-12-24T04:29:16.761Z,76.92
2018-12-24T04:31:36.647Z,76.96
2018-12-24T04:33:56.104Z,76.96
2018-12-24T04:36:19.730Z,76.89
2018-12-24T04:38:38.844Z,76.89
2018-12-24T04:40:58.492Z,76.96
2018-12-24T04:43:17.793Z,76.90
2018-12-24T04:45:37.547Z,76.87
2018-12-24T04:47:57.421Z,76.86
2018-12-24T04:50:16.666Z,76.75
2018-12-24T04:52:36.316Z,76.75
2018-12-24T04:54:55.746Z,76.83
2018-12-24T04:57:15.067Z,76.85
2018-12-24T04:59:34.842Z,76.79
2018-12-24T05:01:54.440Z,76.71
2018-12-24T05:04:13.784Z,76.67
2018-12-24T05:06:32.839Z,76.68
2018-12-24T05:08:52.658Z,76.72
2018-12-24T05:11:11.867Z,76.68
2018-12-24T05:13:31.221Z,76.61
2018-12-24T05:15:50.552Z,76.60
2018-12-24T05:18:08.484Z,76.55
2018-12-24T05:20:28.426Z,76.62
2018-12-24T05:22:47.929Z,76.63
2018-12-24T05:25:07.854Z,76.56
2018-12-24T05:27:27.310Z,76.57
2018-12-24T05:29:46.693Z,76.58
2018-12-24T05:32:06.509Z,76.53
2018-12-24T05:34:25.868Z,76.37
2018-12-24T05:36:45.513Z,76.39
2018-12-24T05:39:06.226Z,76.44
2018-12-24T05:41:25.846Z,76.45
2018-12-24T05:43:49.446Z,76.47
2018-12-24T05:46:06.652Z,76.41
2018-12-24T05:48:26.059Z,76.35
2018-12-24T05:50:45.391Z,76.27
2018-12-24T05:53:04.982Z,76.27
2018-12-24T05:55:25.162Z,76.25
2018-12-24T05:57:44.785Z,76.38
2018-12-24T06:00:04.007Z,76.48
2018-12-24T06:02:23.180Z,76.58
2018-12-24T06:04:42.740Z,76.68
2018-12-24T06:07:02.804Z,76.80
2018-12-24T06:09:22.593Z,76.83
2018-12-24T06:11:42.198Z,76.74
2018-12-24T06:14:01.493Z,76.79
2018-12-24T06:16:19.439Z,76.86
2018-12-24T06:18:38.785Z,76.92
2018-12-24T06:20:58.021Z,76.95
2018-12-24T06:23:17.326Z,76.85
2018-12-24T06:25:37.186Z,76.90
2018-12-24T06:27:56.839Z,77.00
2018-12-24T06:30:16.165Z,77.04
2018-12-24T06:32:35.556Z,77.01
2018-12-24T06:34:54.970Z,77.04
2018-12-24T06:37:14.568Z,77.06
2018-12-24T06:39:34.408Z,77.02
2018-12-24T06:41:52.294Z,77.00
2018-12-24T06:44:11.819Z,76.95
2018-12-24T06:46:31.175Z,76.90
2018-12-24T06:48:50.233Z,76.85
2018-12-24T06:51:09.287Z,76.78
2018-12-24T06:53:28.379Z,76.72
2018-12-24T06:55:47.748Z,76.70
2018-12-24T06:58:05.558Z,76.79
2018-12-24T07:00:24.659Z,76.75
2018-12-24T07:02:43.900Z,76.85
2018-12-24T07:05:03.582Z,76.84
2018-12-24T07:07:21.482Z,76.91
2018-12-24T07:09:41.162Z,76.86
2018-12-24T07:12:00.340Z,76.94
2018-12-24T07:14:19.860Z,76.99
2018-12-24T07:16:39.660Z,76.99
2018-12-24T07:18:58.993Z,76.99
2018-12-24T07:21:18.172Z,77.00
2018-12-24T07:23:36.478Z,76.98
2018-12-24T07:25:55.724Z,76.96
2018-12-24T07:28:14.760Z,76.89
2018-12-24T07:30:34.289Z,76.84
2018-12-24T07:32:53.779Z,76.75
2018-12-24T07:35:13.041Z,76.73
2018-12-24T07:37:32.498Z,76.71
2018-12-24T07:39:51.530Z,76.71
2018-12-24T07:42:11.230Z,76.71
2018-12-24T07:44:30.162Z,76.75
2018-12-24T07:46:49.675Z,76.79
2018-12-24T07:49:09.020Z,76.84
2018-12-24T07:51:28.532Z,76.80
2018-12-24T07:53:48.277Z,76.69
2018-12-24T07:56:07.890Z,76.62
2018-12-24T07:58:27.185Z,76.55
2018-12-24T08:00:47.035Z,76.49
2018-12-24T08:03:06.193Z,76.43
2018-12-24T08:05:25.582Z,76.39
2018-12-24T08:07:44.885Z,76.29
2018-12-24T08:10:04.673Z,76.26
2018-12-24T08:12:23.834Z,76.24
2018-12-24T08:14:43.455Z,76.19
2018-12-24T08:17:07.061Z,76.14
2018-12-24T08:19:26.744Z,76.09
2018-12-24T08:21:46.870Z,76.06
2018-12-24T08:24:06.048Z,75.99
2018-12-24T08:26:25.786Z,75.96
2018-12-24T08:28:44.834Z,75.93
2018-12-24T08:31:04.701Z,75.94
2018-12-24T08:33:24.251Z,75.94
2018-12-24T08:35:43.631Z,75.96
2018-12-24T08:38:01.733Z,76.02
2018-12-24T08:40:20.761Z,76.04
2018-12-24T08:42:40.695Z,76.04
2018-12-24T08:45:00.198Z,76.00
2018-12-24T08:47:20.519Z,75.97
2018-12-24T08:49:39.946Z,75.96
2018-12-24T08:51:59.331Z,75.96
2018-12-24T08:54:19.888Z,75.95
2018-12-24T08:56:38.933Z,75.94
2018-12-24T08:58:58.219Z,75.91
2018-12-24T09:01:17.606Z,75.85
2018-12-24T09:03:36.874Z,75.83
2018-12-24T09:05:57.501Z,75.79
2018-12-24T09:08:17.001Z,75.79
2018-12-24T09:10:36.524Z,75.78
2018-12-24T09:12:56.196Z,75.79
2018-12-24T09:15:15.580Z,75.82
2018-12-24T09:17:35.087Z,75.87
2018-12-24T09:19:54.182Z,75.87
2018-12-24T09:22:13.612Z,75.90
2018-12-24T09:24:33.776Z,75.92
2018-12-24T09:26:52.827Z,75.93
2018-12-24T09:29:12.204Z,75.89
2018-12-24T09:31:32.328Z,75.89
2018-12-24T09:33:50.328Z,75.90
2018-12-24T09:36:09.358Z,75.91
2018-12-24T09:38:29.057Z,75.88
2018-12-24T09:40:48.312Z,75.84
2018-12-24T09:43:07.311Z,75.87
2018-12-24T09:45:28.724Z,75.88
2018-12-24T09:47:48.012Z,75.88
2018-12-24T09:50:07.713Z,75.88
2018-12-24T09:52:28.305Z,75.90
2018-12-24T09:54:48.088Z,75.88
2018-12-24T09:57:07.715Z,75.89
2018-12-24T09:59:26.828Z,75.86
2018-12-24T10:01:46.150Z,75.80
2018-12-24T10:04:15.344Z,75.74
2018-12-24T10:06:36.375Z,75.72
2018-12-24T10:08:55.627Z,75.63
2018-12-24T10:11:16.050Z,75.58
2018-12-24T10:13:36.149Z,75.54
2018-12-24T10:15:56.070Z,75.62
2018-12-24T10:18:15.779Z,75.72
2018-12-24T10:20:35.787Z,75.73
2018-12-24T10:25:48.554Z,75.59
2018-12-24T10:28:07.698Z,75.55
2018-12-24T10:30:27.529Z,75.52
2018-12-24T10:32:46.878Z,75.54
2018-12-24T10:35:08.102Z,75.47
2018-12-24T10:37:27.530Z,75.40
2018-12-24T10:39:46.923Z,75.39
2018-12-24T10:42:06.589Z,75.35
2018-12-24T10:44:25.938Z,75.33
2018-12-24T10:46:45.192Z,75.30
2018-12-24T10:49:04.767Z,75.24
2018-12-24T10:51:25.039Z,75.18
2018-12-24T10:53:44.934Z,75.10
2018-12-24T10:56:05.121Z,75.01
2018-12-24T10:58:24.386Z,74.98
2018-12-24T11:00:43.862Z,74.94
2018-12-24T11:03:03.194Z,74.84
2018-12-24T11:05:22.688Z,74.84
2018-12-24T11:07:41.977Z,74.77
2018-12-24T11:10:01.586Z,74.80
2018-12-24T11:12:21.260Z,74.84
2018-12-24T11:14:40.588Z,74.86
2018-12-24T11:16:59.905Z,74.86
2018-12-24T11:19:19.199Z,74.84
2018-12-24T11:21:38.699Z,74.77
2018-12-24T11:23:58.845Z,74.70
2018-12-24T11:26:18.310Z,74.58
2018-12-24T11:28:37.579Z,74.53
2018-12-24T11:30:56.841Z,74.47
2018-12-24T11:33:16.223Z,74.48
2018-12-24T11:35:36.195Z,74.49
2018-12-24T11:37:56.674Z,74.49
2018-12-24T11:40:15.975Z,74.49
2018-12-24T11:42:36.123Z,74.39
2018-12-24T11:44:55.635Z,74.18
2018-12-24T11:47:15.091Z,73.96
2018-12-24T11:49:34.499Z,73.83
2018-12-24T11:51:53.745Z,73.78
2018-12-24T11:54:13.149Z,73.69
2018-12-24T11:56:32.751Z,73.65
2018-12-24T11:58:54.065Z,73.64
2018-12-24T12:01:13.318Z,73.61
2018-12-24T12:03:34.421Z,73.64
2018-12-24T12:05:54.045Z,73.71
2018-12-24T12:08:14.053Z,73.68
2018-12-24T12:10:33.130Z,73.60
2018-12-24T12:12:52.838Z,73.37
2018-12-24T12:15:13.065Z,73.29
2018-12-24T12:17:32.508Z,73.36
2018-12-24T12:19:52.013Z,73.43
2018-12-24T12:22:11.487Z,73.30
2018-12-24T12:24:31.072Z,73.15
2018-12-24T12:26:50.737Z,73.11
2018-12-24T12:29:10.784Z,73.04
2018-12-24T12:31:30.489Z,72.91
2018-12-24T12:33:50.102Z,72.76
2018-12-24T12:36:10.151Z,72.71
2018-12-24T12:38:30.267Z,72.58
2018-12-24T12:40:49.705Z,72.49
2018-12-24T12:43:09.237Z,72.38
2018-12-24T12:45:29.384Z,72.29
2018-12-24T12:47:49.196Z,72.20
2018-12-24T12:50:08.755Z,71.99
2018-12-24T12:52:28.254Z,71.52
2018-12-24T12:54:47.909Z,71.49
2018-12-24T12:57:07.593Z,70.96
2018-12-24T12:59:27.121Z,70.63
2018-12-24T13:01:46.425Z,70.81
2018-12-24T13:04:05.840Z,70.76
2018-12-24T13:06:25.283Z,70.93
2018-12-24T13:08:44.321Z,70.66
2018-12-24T13:11:03.879Z,70.41
2018-12-24T13:13:23.542Z,70.43
2018-12-24T13:15:43.024Z,70.52
2018-12-24T13:18:02.364Z,70.50
2018-12-24T13:20:25.173Z,70.58
2018-12-24T13:22:43.012Z,70.47
2018-12-24T13:25:02.534Z,70.35
2018-12-24T13:27:22.890Z,70.20
2018-12-24T13:29:42.265Z,70.06
2018-12-24T13:32:02.068Z,69.72
2018-12-24T13:34:21.958Z,69.25
2018-12-24T13:36:41.813Z,69.36
2018-12-24T13:39:01.235Z,69.39
2018-12-24T13:41:21.269Z,69.11
2018-12-24T13:43:41.034Z,68.97
2018-12-24T13:46:07.900Z,68.77
2018-12-24T13:48:21.597Z,68.43
2018-12-24T13:50:41.191Z,68.03
2018-12-24T13:53:00.828Z,68.08
2018-12-24T13:55:20.598Z,68.29
2018-12-24T13:57:40.307Z,68.30
2018-12-24T13:59:59.924Z,68.21
2018-12-24T14:02:22.577Z,68.12
2018-12-24T14:04:42.161Z,68.10
2018-12-24T14:07:01.561Z,67.84
2018-12-24T14:09:21.429Z,67.73
2018-12-24T14:11:40.575Z,67.65
2018-12-24T14:14:00.257Z,67.52
2018-12-24T14:16:19.671Z,67.49
2018-12-24T14:18:38.830Z,67.48
2018-12-24T14:20:59.243Z,67.39
2018-12-24T14:23:19.025Z,67.44
2018-12-24T14:25:38.421Z,67.46
2018-12-24T14:27:57.876Z,67.53
2018-12-24T14:30:17.264Z,67.53
2018-12-24T14:32:37.838Z,67.48
2018-12-24T14:34:57.237Z,67.50
2018-12-24T14:37:17.031Z,67.52
2018-12-24T14:39:36.323Z,67.48
2018-12-24T14:41:55.708Z,67.47
2018-12-24T14:44:15.124Z,67.40
2018-12-24T14:46:34.440Z,67.42
2018-12-24T14:48:54.405Z,67.38
2018-12-24T14:51:14.927Z,67.31
2018-12-24T14:53:34.263Z,67.20
2018-12-24T14:55:53.677Z,67.08
2018-12-24T14:58:13.283Z,67.06
2018-12-24T15:00:32.692Z,67.06
2018-12-24T15:02:52.718Z,67.06
2018-12-24T15:05:12.227Z,67.00
2018-12-24T15:07:31.821Z,66.94
2018-12-24T15:09:51.880Z,66.92
2018-12-24T15:12:11.562Z,66.89
2018-12-24T15:14:30.872Z,66.85
2018-12-24T15:16:50.591Z,66.88
2018-12-24T15:19:10.308Z,66.86
2018-12-24T15:21:29.475Z,66.97
2018-12-24T15:23:49.328Z,67.00
2018-12-24T15:26:08.794Z,67.00
2018-12-24T15:28:28.224Z,67.02
2018-12-24T15:30:48.187Z,67.10
2018-12-24T15:33:06.494Z,67.12
2018-12-24T15:35:25.602Z,67.21
2018-12-24T15:37:45.978Z,67.28
2018-12-24T15:40:06.115Z,67.27
2018-12-24T15:42:25.627Z,67.29
2018-12-24T15:44:44.937Z,67.35
2018-12-24T15:47:04.521Z,67.36
2018-12-24T15:49:23.927Z,67.29
2018-12-24T15:51:43.290Z,67.31
2018-12-24T15:54:03.016Z,67.36
2018-12-24T15:56:22.041Z,67.35
2018-12-24T15:58:41.371Z,67.44
2018-12-24T16:01:02.693Z,67.51
2018-12-24T16:03:20.765Z,67.61
2018-12-24T16:05:39.902Z,67.66
2018-12-24T16:07:59.283Z,67.62
2018-12-24T16:10:18.561Z,67.60
2018-12-24T16:12:37.881Z,67.62
2018-12-24T16:14:57.892Z,67.69
2018-12-24T16:17:16.984Z,67.74
2018-12-24T16:19:37.711Z,67.75
2018-12-24T16:21:57.466Z,67.79
2018-12-24T16:24:17.354Z,67.79
2018-12-24T16:26:36.578Z,67.83
2018-12-24T16:28:55.677Z,67.88
2018-12-24T16:31:15.382Z,67.96
2018-12-24T16:33:34.943Z,68.02
2018-12-24T16:35:54.260Z,68.04
2018-12-24T16:38:14.010Z,68.00
2018-12-24T16:40:34.331Z,68.00
2018-12-24T16:42:53.698Z,68.00
2018-12-24T16:45:13.286Z,68.02
2018-12-24T16:47:32.523Z,67.91
2018-12-24T16:49:52.161Z,67.82
2018-12-24T16:52:11.655Z,67.71
2018-12-24T16:54:31.210Z,67.62
2018-12-24T16:56:50.642Z,67.53
2018-12-24T16:59:10.431Z,67.37
2018-12-24T17:01:29.835Z,67.17
2018-12-24T17:03:48.843Z,67.20
2018-12-24T17:06:06.892Z,67.25
2018-12-24T17:08:26.143Z,67.24
2018-12-24T17:10:45.440Z,67.14
2018-12-24T17:13:04.683Z,67.09
2018-12-24T17:15:25.144Z,66.92
2018-12-24T17:17:44.748Z,66.80
2018-12-24T17:20:04.562Z,66.68
2018-12-24T17:22:23.798Z,66.47
2018-12-24T17:24:43.017Z,66.36
2018-12-24T17:27:02.401Z,66.23
2018-12-24T17:29:22.652Z,65.84
2018-12-24T17:31:42.193Z,65.61
2018-12-24T17:34:01.773Z,65.55
2018-12-24T17:36:21.553Z,65.52
2018-12-24T17:38:41.245Z,65.42
2018-12-24T17:41:00.632Z,65.25
2018-12-24T17:43:20.200Z,65.15
2018-12-24T17:45:37.496Z,64.77
2018-12-24T17:47:56.360Z,64.69
2018-12-24T17:50:16.253Z,64.50
2018-12-24T17:52:38.931Z,64.41
2018-12-24T17:55:19.793Z,64.42
2018-12-24T17:57:39.379Z,64.24
2018-12-24T17:59:58.789Z,64.29
2018-12-24T18:02:18.960Z,64.21
2018-12-24T18:04:38.026Z,64.13
2018-12-24T18:06:57.748Z,64.07
2018-12-24T18:09:17.035Z,63.91
2018-12-24T18:11:36.676Z,63.77
2018-12-24T18:13:56.627Z,63.67
2018-12-24T18:16:15.954Z,63.69
2018-12-24T18:18:35.371Z,63.58
2018-12-24T18:20:54.333Z,63.45
2018-12-24T18:23:13.378Z,63.43
2018-12-24T18:25:33.354Z,63.35
2018-12-24T18:27:52.513Z,63.20
2018-12-24T18:30:14.086Z,63.03
2018-12-24T18:32:33.441Z,63.04
2018-12-24T18:34:52.705Z,62.87
2018-12-24T18:37:11.768Z,62.81
2018-12-24T18:39:31.430Z,62.77
2018-12-24T18:41:51.193Z,62.79
2018-12-24T18:44:10.524Z,62.80
2018-12-24T18:46:30.034Z,62.83
2018-12-24T18:48:49.660Z,62.70
2018-12-24T18:51:08.924Z,62.71
2018-12-24T18:53:28.508Z,62.65
2018-12-24T18:55:49.758Z,62.62
2018-12-24T18:58:08.948Z,62.55
2018-12-24T19:00:28.631Z,62.61
2018-12-24T19:02:48.094Z,62.57
2018-12-24T19:05:08.393Z,62.64
2018-12-24T19:07:27.992Z,62.68
2018-12-24T19:09:47.423Z,62.61
2018-12-24T19:12:06.790Z,62.54
2018-12-24T19:14:27.028Z,62.57
2018-12-24T19:16:46.877Z,62.55
2018-12-24T19:19:06.269Z,62.59
2018-12-24T19:21:26.777Z,62.57
2018-12-24T19:23:46.160Z,62.45
2018-12-24T19:26:05.756Z,62.53
2018-12-24T19:28:24.974Z,62.57
2018-12-24T19:30:44.243Z,62.55
2018-12-24T19:33:07.449Z,62.60
2018-12-24T19:35:26.769Z,62.61
2018-12-24T19:37:46.930Z,62.63
2018-12-24T19:40:07.335Z,62.60
2018-12-24T19:42:26.769Z,62.57
2018-12-24T19:44:46.148Z,62.55
2018-12-24T19:47:04.476Z,62.51
2018-12-24T19:49:23.537Z,62.53
2018-12-24T19:51:42.954Z,62.46
2018-12-24T19:54:02.689Z,62.38
2018-12-24T19:56:22.138Z,62.38
2018-12-24T19:58:41.554Z,62.36
2018-12-24T20:01:01.248Z,62.37
2018-12-24T20:03:21.321Z,62.44
2018-12-24T20:05:40.460Z,62.62
2018-12-24T20:08:01.301Z,62.75
2018-12-24T20:10:21.119Z,62.88
2018-12-24T20:12:40.773Z,62.95
2018-12-24T20:15:00.741Z,62.95
2018-12-24T20:17:20.539Z,62.88
2018-12-24T20:19:40.242Z,62.90
2018-12-24T20:21:59.663Z,62.97
2018-12-24T20:24:19.105Z,63.04
2018-12-24T20:26:38.808Z,63.16
2018-12-24T20:28:58.237Z,63.23
2018-12-24T20:31:17.773Z,63.31
2018-12-24T20:33:37.240Z,63.36
2018-12-24T20:35:57.051Z,63.37
2018-12-24T20:38:16.223Z,63.40
2018-12-24T20:40:36.901Z,63.47
2018-12-24T20:42:56.402Z,63.53
2018-12-24T20:45:15.603Z,63.50
2018-12-24T20:47:35.745Z,63.51
2018-12-24T20:49:55.141Z,63.56
2018-12-24T20:52:14.983Z,63.56
2018-12-24T20:54:34.647Z,63.50
2018-12-24T20:56:53.995Z,63.39
2018-12-24T20:59:13.484Z,63.33
2018-12-24T21:01:32.921Z,63.32
2018-12-24T21:03:52.342Z,63.32
2018-12-24T21:06:12.366Z,63.28
2018-12-24T21:08:31.757Z,63.26
2018-12-24T21:10:51.043Z,63.23
2018-12-24T21:13:10.685Z,63.27
2018-12-24T21:15:29.957Z,63.38
2018-12-24T21:17:49.889Z,63.42
2018-12-24T21:20:09.845Z,63.41
2018-12-24T21:22:29.293Z,63.34
2018-12-24T21:24:49.053Z,63.31
2018-12-24T21:27:09.326Z,63.28
2018-12-24T21:29:27.153Z,63.21
2018-12-24T21:31:47.873Z,63.14
2018-12-24T21:34:07.481Z,63.06
2018-12-24T21:36:26.449Z,63.07
2018-12-24T21:38:44.451Z,63.04
2018-12-24T21:41:03.526Z,63.08
2018-12-24T21:43:23.081Z,63.13
2018-12-24T21:45:42.497Z,63.20
2018-12-24T21:48:01.715Z,63.27
2018-12-24T21:50:21.437Z,63.32
2018-12-24T21:52:40.540Z,63.34
2018-12-24T21:54:59.645Z,63.38
2018-12-24T21:57:38.659Z,63.41
2018-12-24T21:59:46.012Z,63.34
2018-12-24T22:02:05.369Z,63.29
2018-12-24T22:04:24.617Z,63.24
2018-12-24T22:06:44.448Z,63.21
2018-12-24T22:09:04.776Z,63.20
2018-12-24T22:11:24.870Z,63.21
2018-12-24T22:13:44.912Z,63.27
2018-12-24T22:15:53.259Z,63.38
2018-12-24T22:18:12.973Z,63.44
2018-12-24T22:20:32.314Z,63.57
2018-12-24T22:22:51.677Z,63.63
2018-12-24T22:25:11.096Z,63.75
2018-12-24T22:27:30.187Z,63.85
2018-12-24T22:29:50.187Z,63.89
2018-12-24T22:32:10.173Z,63.92
2018-12-24T22:34:29.802Z,63.96
2018-12-24T22:36:49.515Z,63.96
2018-12-24T22:39:09.528Z,63.86
2018-12-24T22:41:28.878Z,63.93
2018-12-24T22:43:47.071Z,63.99
2018-12-24T22:46:06.269Z,64.02
2018-12-24T22:48:26.088Z,64.09
2018-12-24T22:50:45.664Z,64.04
2018-12-24T22:53:04.719Z,63.97
2018-12-24T22:55:25.090Z,63.87
2018-12-24T22:57:44.352Z,63.97
2018-12-24T23:00:04.239Z,64.08
2018-12-24T23:02:24.018Z,64.24
2018-12-24T23:04:44.548Z,64.29
2018-12-24T23:07:03.688Z,64.39
2018-12-24T23:09:21.644Z,64.48
2018-12-24T23:11:45.074Z,64.51
2018-12-24T23:14:23.855Z,64.60
2018-12-24T23:16:52.375Z,64.64
2018-12-24T23:19:12.632Z,64.69
2018-12-24T23:21:32.838Z,64.72
2018-12-24T23:23:52.486Z,64.68
2018-12-24T23:26:11.975Z,64.70
2018-12-24T23:28:32.572Z,64.76
2018-12-24T23:30:51.698Z,64.80
2018-12-24T23:33:11.582Z,64.78
2018-12-24T23:38:16.524Z,64.68
2018-12-24T23:40:35.878Z,64.64
2018-12-24T23:42:55.343Z,64.64
2018-12-24T23:45:14.654Z,64.59
2018-12-24T23:47:34.117Z,64.65
2018-12-24T23:49:55.330Z,64.71
2018-12-24T23:52:15.325Z,64.70
2018-12-24T23:54:34.408Z,64.74
2018-12-24T23:56:54.076Z,64.75
2018-12-24T23:59:13.589Z,64.71
